sensor_id;sensor_type;location;lat;lon;timestamp;P1;durP1;ratioP1;P2;durP2;ratioP2
62709;SDS011;48770;51.624;5.886;2023-07-20T00:01:12;4.60;;;1.45;;
62709;SDS011;48770;51.624;5.886;2023-07-20T00:03:38;1.43;;;1.07;;
62709;SDS011;48770;51.624;5.886;2023-07-20T00:06:03;3.08;;;0.93;;
62709;SDS011;48770;51.624;5.886;2023-07-20T00:08:29;1.40;;;0.80;;
62709;SDS011;48770;51.624;5.886;2023-07-20T00:10:55;2.80;;;0.93;;
62709;SDS011;48770;51.624;5.886;2023-07-20T00:13:20;2.50;;;1.00;;
62709;SDS011;48770;51.624;5.886;2023-07-20T00:15:46;3.17;;;1.08;;
62709;SDS011;48770;51.624;5.886;2023-07-20T00:18:11;1.30;;;1.00;;
62709;SDS011;48770;51.624;5.886;2023-07-20T00:20:37;2.85;;;0.98;;
62709;SDS011;48770;51.624;5.886;2023-07-20T00:23:02;4.38;;;1.10;;
62709;SDS011;48770;51.624;5.886;2023-07-20T00:25:27;1.25;;;0.85;;
62709;SDS011;48770;51.624;5.886;2023-07-20T00:27:53;1.73;;;1.10;;
62709;SDS011;48770;51.624;5.886;2023-07-20T00:30:18;3.65;;;1.00;;
62709;SDS011;48770;51.624;5.886;2023-07-20T00:32:44;2.63;;;1.17;;
62709;SDS011;48770;51.624;5.886;2023-07-20T00:35:09;3.20;;;1.00;;
62709;SDS011;48770;51.624;5.886;2023-07-20T00:37:36;1.75;;;1.00;;
62709;SDS011;48770;51.624;5.886;2023-07-20T00:40:02;1.83;;;1.00;;
62709;SDS011;48770;51.624;5.886;2023-07-20T00:42:30;1.95;;;1.27;;
62709;SDS011;48770;51.624;5.886;2023-07-20T00:44:55;1.00;;;0.80;;
62709;SDS011;48770;51.624;5.886;2023-07-20T00:47:21;3.33;;;1.20;;
62709;SDS011;48770;51.624;5.886;2023-07-20T00:49:46;2.05;;;1.00;;
62709;SDS011;48770;51.624;5.886;2023-07-20T00:52:12;4.05;;;1.15;;
62709;SDS011;48770;51.624;5.886;2023-07-20T00:54:40;2.05;;;1.20;;
62709;SDS011;48770;51.624;5.886;2023-07-20T00:57:06;1.35;;;1.08;;
62709;SDS011;48770;51.624;5.886;2023-07-20T00:59:32;4.82;;;1.20;;
62709;SDS011;48770;51.624;5.886;2023-07-20T01:01:58;1.98;;;1.15;;
62709;SDS011;48770;51.624;5.886;2023-07-20T01:04:23;1.63;;;1.17;;
62709;SDS011;48770;51.624;5.886;2023-07-20T01:06:52;1.48;;;1.20;;
62709;SDS011;48770;51.624;5.886;2023-07-20T01:09:32;2.78;;;1.50;;
62709;SDS011;48770;51.624;5.886;2023-07-20T01:12:09;1.40;;;0.88;;
62709;SDS011;48770;51.624;5.886;2023-07-20T01:14:43;1.75;;;0.90;;
62709;SDS011;48770;51.624;5.886;2023-07-20T01:17:09;1.52;;;0.93;;
62709;SDS011;48770;51.624;5.886;2023-07-20T01:19:35;1.88;;;1.10;;
62709;SDS011;48770;51.624;5.886;2023-07-20T01:22:47;1.83;;;1.10;;
62709;SDS011;48770;51.624;5.886;2023-07-20T01:28:00;1.60;;;1.05;;
62709;SDS011;48770;51.624;5.886;2023-07-20T01:31:14;3.25;;;1.40;;
62709;SDS011;48770;51.624;5.886;2023-07-20T01:33:43;1.33;;;1.17;;
62709;SDS011;48770;51.624;5.886;2023-07-20T01:36:11;1.55;;;1.20;;
62709;SDS011;48770;51.624;5.886;2023-07-20T01:38:38;1.98;;;1.27;;
62709;SDS011;48770;51.624;5.886;2023-07-20T01:41:04;2.42;;;1.17;;
62709;SDS011;48770;51.624;5.886;2023-07-20T01:43:30;2.25;;;1.20;;
62709;SDS011;48770;51.624;5.886;2023-07-20T01:45:55;5.00;;;1.20;;
62709;SDS011;48770;51.624;5.886;2023-07-20T01:48:21;1.67;;;1.33;;
62709;SDS011;48770;51.624;5.886;2023-07-20T01:50:46;2.38;;;1.35;;
62709;SDS011;48770;51.624;5.886;2023-07-20T01:53:11;3.10;;;1.27;;
62709;SDS011;48770;51.624;5.886;2023-07-20T01:55:37;2.65;;;1.30;;
62709;SDS011;48770;51.624;5.886;2023-07-20T01:58:02;3.15;;;1.95;;
62709;SDS011;48770;51.624;5.886;2023-07-20T02:00:28;1.90;;;1.10;;
62709;SDS011;48770;51.624;5.886;2023-07-20T02:02:54;2.10;;;1.50;;
62709;SDS011;48770;51.624;5.886;2023-07-20T02:05:19;1.83;;;1.08;;
62709;SDS011;48770;51.624;5.886;2023-07-20T02:07:44;3.40;;;1.48;;
62709;SDS011;48770;51.624;5.886;2023-07-20T02:10:10;2.87;;;1.63;;
62709;SDS011;48770;51.624;5.886;2023-07-20T02:12:35;1.92;;;1.17;;
62709;SDS011;48770;51.624;5.886;2023-07-20T02:15:01;2.13;;;1.25;;
62709;SDS011;48770;51.624;5.886;2023-07-20T02:17:27;3.17;;;1.70;;
62709;SDS011;48770;51.624;5.886;2023-07-20T02:19:52;2.10;;;1.50;;
62709;SDS011;48770;51.624;5.886;2023-07-20T02:22:18;2.38;;;1.40;;
62709;SDS011;48770;51.624;5.886;2023-07-20T02:24:43;2.80;;;1.48;;
62709;SDS011;48770;51.624;5.886;2023-07-20T02:27:09;1.80;;;1.20;;
62709;SDS011;48770;51.624;5.886;2023-07-20T02:29:34;3.95;;;1.77;;
62709;SDS011;48770;51.624;5.886;2023-07-20T02:31:59;4.47;;;1.30;;
62709;SDS011;48770;51.624;5.886;2023-07-20T02:34:24;2.00;;;1.50;;
62709;SDS011;48770;51.624;5.886;2023-07-20T02:36:50;3.20;;;1.65;;
62709;SDS011;48770;51.624;5.886;2023-07-20T02:39:15;2.33;;;1.50;;
62709;SDS011;48770;51.624;5.886;2023-07-20T02:41:40;2.65;;;1.77;;
62709;SDS011;48770;51.624;5.886;2023-07-20T02:44:06;2.88;;;1.48;;
62709;SDS011;48770;51.624;5.886;2023-07-20T02:46:32;2.40;;;1.80;;
62709;SDS011;48770;51.624;5.886;2023-07-20T02:48:57;4.28;;;1.75;;
62709;SDS011;48770;51.624;5.886;2023-07-20T02:51:22;3.58;;;1.88;;
62709;SDS011;48770;51.624;5.886;2023-07-20T02:53:48;2.33;;;1.75;;
62709;SDS011;48770;51.624;5.886;2023-07-20T02:56:13;1.70;;;1.40;;
62709;SDS011;48770;51.624;5.886;2023-07-20T02:58:40;1.90;;;1.20;;
62709;SDS011;48770;51.624;5.886;2023-07-20T03:01:10;2.30;;;1.58;;
62709;SDS011;48770;51.624;5.886;2023-07-20T03:03:37;3.63;;;1.83;;
62709;SDS011;48770;51.624;5.886;2023-07-20T03:06:04;1.83;;;1.35;;
62709;SDS011;48770;51.624;5.886;2023-07-20T03:08:30;2.15;;;1.35;;
62709;SDS011;48770;51.624;5.886;2023-07-20T03:10:55;2.47;;;1.33;;
62709;SDS011;48770;51.624;5.886;2023-07-20T03:13:20;2.20;;;1.52;;
62709;SDS011;48770;51.624;5.886;2023-07-20T03:15:46;3.08;;;1.35;;
62709;SDS011;48770;51.624;5.886;2023-07-20T03:18:11;1.77;;;1.30;;
62709;SDS011;48770;51.624;5.886;2023-07-20T03:20:38;2.80;;;1.30;;
62709;SDS011;48770;51.624;5.886;2023-07-20T03:23:03;1.88;;;1.40;;
62709;SDS011;48770;51.624;5.886;2023-07-20T03:25:29;3.05;;;1.45;;
62709;SDS011;48770;51.624;5.886;2023-07-20T03:27:54;2.43;;;1.33;;
62709;SDS011;48770;51.624;5.886;2023-07-20T03:30:19;3.40;;;1.53;;
62709;SDS011;48770;51.624;5.886;2023-07-20T03:32:44;1.97;;;1.17;;
62709;SDS011;48770;51.624;5.886;2023-07-20T03:35:10;1.43;;;1.20;;
62709;SDS011;48770;51.624;5.886;2023-07-20T03:37:35;2.47;;;1.60;;
62709;SDS011;48770;51.624;5.886;2023-07-20T03:40:02;3.45;;;1.30;;
62709;SDS011;48770;51.624;5.886;2023-07-20T03:42:28;2.08;;;1.20;;
62709;SDS011;48770;51.624;5.886;2023-07-20T03:44:53;1.63;;;0.98;;
62709;SDS011;48770;51.624;5.886;2023-07-20T03:47:18;1.50;;;1.10;;
62709;SDS011;48770;51.624;5.886;2023-07-20T03:49:44;2.80;;;0.82;;
62709;SDS011;48770;51.624;5.886;2023-07-20T03:52:09;1.63;;;1.10;;
62709;SDS011;48770;51.624;5.886;2023-07-20T03:54:34;1.55;;;1.10;;
62709;SDS011;48770;51.624;5.886;2023-07-20T03:57:00;2.33;;;1.17;;
62709;SDS011;48770;51.624;5.886;2023-07-20T03:59:25;2.40;;;1.27;;
62709;SDS011;48770;51.624;5.886;2023-07-20T04:01:51;1.63;;;1.15;;
62709;SDS011;48770;51.624;5.886;2023-07-20T04:04:16;3.33;;;1.20;;
62709;SDS011;48770;51.624;5.886;2023-07-20T04:06:42;1.42;;;1.00;;
62709;SDS011;48770;51.624;5.886;2023-07-20T04:09:09;1.45;;;1.25;;
62709;SDS011;48770;51.624;5.886;2023-07-20T04:11:35;2.30;;;1.10;;
62709;SDS011;48770;51.624;5.886;2023-07-20T04:14:00;1.88;;;1.15;;
62709;SDS011;48770;51.624;5.886;2023-07-20T04:16:25;1.65;;;1.20;;
62709;SDS011;48770;51.624;5.886;2023-07-20T04:18:51;2.40;;;1.10;;
62709;SDS011;48770;51.624;5.886;2023-07-20T04:21:17;2.40;;;1.13;;
62709;SDS011;48770;51.624;5.886;2023-07-20T04:23:42;2.00;;;1.10;;
62709;SDS011;48770;51.624;5.886;2023-07-20T04:26:07;2.13;;;1.02;;
62709;SDS011;48770;51.624;5.886;2023-07-20T04:28:33;1.77;;;1.15;;
62709;SDS011;48770;51.624;5.886;2023-07-20T04:31:14;1.42;;;0.85;;
62709;SDS011;48770;51.624;5.886;2023-07-20T04:33:40;2.38;;;1.02;;
62709;SDS011;48770;51.624;5.886;2023-07-20T04:36:06;1.30;;;0.75;;
62709;SDS011;48770;51.624;5.886;2023-07-20T04:38:31;1.55;;;1.10;;
62709;SDS011;48770;51.624;5.886;2023-07-20T04:40:56;1.65;;;0.85;;
62709;SDS011;48770;51.624;5.886;2023-07-20T04:43:22;1.05;;;0.75;;
62709;SDS011;48770;51.624;5.886;2023-07-20T04:45:47;1.45;;;0.82;;
62709;SDS011;48770;51.624;5.886;2023-07-20T04:48:14;1.02;;;0.80;;
62709;SDS011;48770;51.624;5.886;2023-07-20T04:50:40;3.78;;;0.85;;
62709;SDS011;48770;51.624;5.886;2023-07-20T04:53:07;1.27;;;0.70;;
62709;SDS011;48770;51.624;5.886;2023-07-20T04:55:33;2.97;;;0.70;;
62709;SDS011;48770;51.624;5.886;2023-07-20T04:57:59;1.35;;;0.80;;
62709;SDS011;48770;51.624;5.886;2023-07-20T05:00:25;0.60;;;0.60;;
62709;SDS011;48770;51.624;5.886;2023-07-20T05:02:51;1.33;;;0.68;;
62709;SDS011;48770;51.624;5.886;2023-07-20T05:05:16;1.35;;;0.80;;
62709;SDS011;48770;51.624;5.886;2023-07-20T05:07:41;3.80;;;0.90;;
62709;SDS011;48770;51.624;5.886;2023-07-20T05:10:07;0.80;;;0.80;;
62709;SDS011;48770;51.624;5.886;2023-07-20T05:12:32;1.70;;;0.80;;
62709;SDS011;48770;51.624;5.886;2023-07-20T05:14:58;1.40;;;0.85;;
62709;SDS011;48770;51.624;5.886;2023-07-20T05:17:23;3.93;;;0.87;;
62709;SDS011;48770;51.624;5.886;2023-07-20T05:19:49;0.93;;;0.70;;
62709;SDS011;48770;51.624;5.886;2023-07-20T05:22:15;1.27;;;0.85;;
62709;SDS011;48770;51.624;5.886;2023-07-20T05:24:41;1.58;;;0.90;;
62709;SDS011;48770;51.624;5.886;2023-07-20T05:27:06;0.60;;;0.60;;
62709;SDS011;48770;51.624;5.886;2023-07-20T05:29:31;0.80;;;0.50;;
62709;SDS011;48770;51.624;5.886;2023-07-20T05:31:57;3.13;;;0.93;;
62709;SDS011;48770;51.624;5.886;2023-07-20T05:34:23;2.50;;;0.80;;
62709;SDS011;48770;51.624;5.886;2023-07-20T05:36:48;0.68;;;0.60;;
62709;SDS011;48770;51.624;5.886;2023-07-20T05:39:14;0.93;;;0.68;;
62709;SDS011;48770;51.624;5.886;2023-07-20T05:41:42;1.38;;;0.88;;
62709;SDS011;48770;51.624;5.886;2023-07-20T05:44:07;1.52;;;0.85;;
62709;SDS011;48770;51.624;5.886;2023-07-20T05:46:32;2.83;;;0.80;;
62709;SDS011;48770;51.624;5.886;2023-07-20T05:48:58;0.93;;;0.70;;
62709;SDS011;48770;51.624;5.886;2023-07-20T05:51:23;2.07;;;0.70;;
62709;SDS011;48770;51.624;5.886;2023-07-20T05:53:48;2.53;;;0.73;;
62709;SDS011;48770;51.624;5.886;2023-07-20T05:56:13;1.67;;;0.50;;
62709;SDS011;48770;51.624;5.886;2023-07-20T05:58:39;1.73;;;0.60;;
62709;SDS011;48770;51.624;5.886;2023-07-20T06:01:04;2.08;;;0.73;;
62709;SDS011;48770;51.624;5.886;2023-07-20T06:03:32;1.38;;;0.80;;
62709;SDS011;48770;51.624;5.886;2023-07-20T06:06:02;1.05;;;0.88;;
62709;SDS011;48770;51.624;5.886;2023-07-20T06:08:29;1.85;;;0.80;;
62709;SDS011;48770;51.624;5.886;2023-07-20T06:10:54;2.53;;;1.13;;
62709;SDS011;48770;51.624;5.886;2023-07-20T06:13:19;0.57;;;0.57;;
62709;SDS011;48770;51.624;5.886;2023-07-20T06:15:45;1.00;;;0.70;;
62709;SDS011;48770;51.624;5.886;2023-07-20T06:18:10;1.33;;;0.75;;
62709;SDS011;48770;51.624;5.886;2023-07-20T06:20:35;0.70;;;0.70;;
62709;SDS011;48770;51.624;5.886;2023-07-20T06:23:01;3.63;;;1.08;;
62709;SDS011;48770;51.624;5.886;2023-07-20T06:25:26;1.27;;;0.90;;
62709;SDS011;48770;51.624;5.886;2023-07-20T06:27:51;1.30;;;0.80;;
62709;SDS011;48770;51.624;5.886;2023-07-20T06:30:17;0.90;;;0.70;;
62709;SDS011;48770;51.624;5.886;2023-07-20T06:32:43;2.53;;;0.63;;
62709;SDS011;48770;51.624;5.886;2023-07-20T06:35:08;1.67;;;0.70;;
62709;SDS011;48770;51.624;5.886;2023-07-20T06:37:34;4.03;;;0.80;;
62709;SDS011;48770;51.624;5.886;2023-07-20T06:40:00;0.88;;;0.60;;
62709;SDS011;48770;51.624;5.886;2023-07-20T06:42:26;0.35;;;0.35;;
62709;SDS011;48770;51.624;5.886;2023-07-20T06:44:51;1.17;;;0.60;;
62709;SDS011;48770;51.624;5.886;2023-07-20T06:47:17;1.67;;;0.75;;
62709;SDS011;48770;51.624;5.886;2023-07-20T06:49:42;3.22;;;1.10;;
62709;SDS011;48770;51.624;5.886;2023-07-20T06:52:08;2.08;;;1.20;;
62709;SDS011;48770;51.624;5.886;2023-07-20T06:54:33;5.18;;;0.95;;
62709;SDS011;48770;51.624;5.886;2023-07-20T06:56:58;2.50;;;1.13;;
62709;SDS011;48770;51.624;5.886;2023-07-20T06:59:24;1.95;;;1.20;;
62709;SDS011;48770;51.624;5.886;2023-07-20T07:01:50;1.40;;;0.98;;
62709;SDS011;48770;51.624;5.886;2023-07-20T07:04:15;1.88;;;1.00;;
62709;SDS011;48770;51.624;5.886;2023-07-20T07:06:40;1.37;;;1.10;;
62709;SDS011;48770;51.624;5.886;2023-07-20T07:09:06;4.43;;;0.90;;
62709;SDS011;48770;51.624;5.886;2023-07-20T07:11:33;2.08;;;0.82;;
62709;SDS011;48770;51.624;5.886;2023-07-20T07:13:58;1.40;;;1.02;;
62709;SDS011;48770;51.624;5.886;2023-07-20T07:16:24;0.90;;;0.50;;
62709;SDS011;48770;51.624;5.886;2023-07-20T07:18:50;1.92;;;0.60;;
62709;SDS011;48770;51.624;5.886;2023-07-20T07:21:16;1.48;;;0.60;;
62709;SDS011;48770;51.624;5.886;2023-07-20T07:23:41;1.58;;;0.57;;
62709;SDS011;48770;51.624;5.886;2023-07-20T07:26:07;1.77;;;0.70;;
62709;SDS011;48770;51.624;5.886;2023-07-20T07:28:32;1.52;;;0.65;;
62709;SDS011;48770;51.624;5.886;2023-07-20T07:30:57;1.45;;;0.70;;
62709;SDS011;48770;51.624;5.886;2023-07-20T07:33:23;1.08;;;0.50;;
62709;SDS011;48770;51.624;5.886;2023-07-20T07:35:51;1.42;;;0.77;;
62709;SDS011;48770;51.624;5.886;2023-07-20T07:38:20;1.25;;;0.70;;
62709;SDS011;48770;51.624;5.886;2023-07-20T07:40:45;1.13;;;0.73;;
62709;SDS011;48770;51.624;5.886;2023-07-20T07:43:11;0.70;;;0.50;;
62709;SDS011;48770;51.624;5.886;2023-07-20T07:45:38;1.52;;;0.60;;
62709;SDS011;48770;51.624;5.886;2023-07-20T07:48:07;0.95;;;0.60;;
62709;SDS011;48770;51.624;5.886;2023-07-20T07:50:33;1.05;;;0.63;;
62709;SDS011;48770;51.624;5.886;2023-07-20T07:52:59;3.13;;;0.60;;
62709;SDS011;48770;51.624;5.886;2023-07-20T07:55:24;2.75;;;0.50;;
62709;SDS011;48770;51.624;5.886;2023-07-20T07:57:51;0.40;;;0.40;;
62709;SDS011;48770;51.624;5.886;2023-07-20T08:00:17;1.63;;;0.68;;
62709;SDS011;48770;51.624;5.886;2023-07-20T08:02:44;0.93;;;0.60;;
62709;SDS011;48770;51.624;5.886;2023-07-20T08:05:10;1.75;;;0.40;;
62709;SDS011;48770;51.624;5.886;2023-07-20T08:07:38;0.73;;;0.30;;
62709;SDS011;48770;51.624;5.886;2023-07-20T08:10:04;0.80;;;0.40;;
62709;SDS011;48770;51.624;5.886;2023-07-20T08:12:30;0.85;;;0.65;;
62709;SDS011;48770;51.624;5.886;2023-07-20T08:14:56;0.85;;;0.50;;
62709;SDS011;48770;51.624;5.886;2023-07-20T08:17:21;4.75;;;0.40;;
62709;SDS011;48770;51.624;5.886;2023-07-20T08:19:46;4.65;;;0.70;;
62709;SDS011;48770;51.624;5.886;2023-07-20T08:22:12;1.70;;;0.60;;
62709;SDS011;48770;51.624;5.886;2023-07-20T08:24:40;0.75;;;0.40;;
62709;SDS011;48770;51.624;5.886;2023-07-20T08:27:06;2.20;;;0.60;;
62709;SDS011;48770;51.624;5.886;2023-07-20T08:29:32;1.65;;;0.50;;
62709;SDS011;48770;51.624;5.886;2023-07-20T08:31:57;1.02;;;0.60;;
62709;SDS011;48770;51.624;5.886;2023-07-20T08:34:22;0.82;;;0.30;;
62709;SDS011;48770;51.624;5.886;2023-07-20T08:36:48;1.42;;;0.45;;
62709;SDS011;48770;51.624;5.886;2023-07-20T08:39:13;1.33;;;0.37;;
62709;SDS011;48770;51.624;5.886;2023-07-20T08:41:39;0.93;;;0.30;;
62709;SDS011;48770;51.624;5.886;2023-07-20T08:44:07;1.70;;;0.40;;
62709;SDS011;48770;51.624;5.886;2023-07-20T08:46:33;1.00;;;0.40;;
62709;SDS011;48770;51.624;5.886;2023-07-20T08:49:00;1.23;;;0.28;;
62709;SDS011;48770;51.624;5.886;2023-07-20T08:51:27;1.00;;;0.40;;
62709;SDS011;48770;51.624;5.886;2023-07-20T08:53:54;0.47;;;0.30;;
62709;SDS011;48770;51.624;5.886;2023-07-20T08:56:19;2.53;;;0.40;;
62709;SDS011;48770;51.624;5.886;2023-07-20T08:58:45;0.85;;;0.30;;
62709;SDS011;48770;51.624;5.886;2023-07-20T09:01:11;1.95;;;0.65;;
62709;SDS011;48770;51.624;5.886;2023-07-20T09:03:37;1.42;;;0.30;;
62709;SDS011;48770;51.624;5.886;2023-07-20T09:06:04;0.88;;;0.30;;
62709;SDS011;48770;51.624;5.886;2023-07-20T09:08:30;1.30;;;0.32;;
62709;SDS011;48770;51.624;5.886;2023-07-20T09:10:56;0.40;;;0.20;;
62709;SDS011;48770;51.624;5.886;2023-07-20T09:13:21;0.60;;;0.38;;
62709;SDS011;48770;51.624;5.886;2023-07-20T09:15:47;0.60;;;0.35;;
62709;SDS011;48770;51.624;5.886;2023-07-20T09:18:25;0.38;;;0.20;;
62709;SDS011;48770;51.624;5.886;2023-07-20T09:20:50;0.77;;;0.40;;
62709;SDS011;48770;51.624;5.886;2023-07-20T09:23:16;1.08;;;0.32;;
62709;SDS011;48770;51.624;5.886;2023-07-20T09:25:41;0.52;;;0.28;;
62709;SDS011;48770;51.624;5.886;2023-07-20T09:28:07;0.80;;;0.30;;
62709;SDS011;48770;51.624;5.886;2023-07-20T09:30:32;0.97;;;0.40;;
62709;SDS011;48770;51.624;5.886;2023-07-20T09:32:57;0.50;;;0.32;;
62709;SDS011;48770;51.624;5.886;2023-07-20T09:35:23;0.20;;;0.17;;
62709;SDS011;48770;51.624;5.886;2023-07-20T09:37:50;1.05;;;0.28;;
62709;SDS011;48770;51.624;5.886;2023-07-20T09:40:17;0.63;;;0.30;;
62709;SDS011;48770;51.624;5.886;2023-07-20T09:42:43;0.28;;;0.20;;
62709;SDS011;48770;51.624;5.886;2023-07-20T09:45:09;1.90;;;0.40;;
62709;SDS011;48770;51.624;5.886;2023-07-20T09:47:35;0.65;;;0.28;;
62709;SDS011;48770;51.624;5.886;2023-07-20T09:50:03;0.22;;;0.20;;
62709;SDS011;48770;51.624;5.886;2023-07-20T09:52:29;0.90;;;0.20;;
62709;SDS011;48770;51.624;5.886;2023-07-20T09:54:55;1.40;;;0.30;;
62709;SDS011;48770;51.624;5.886;2023-07-20T09:57:20;0.22;;;0.10;;
62709;SDS011;48770;51.624;5.886;2023-07-20T09:59:46;1.08;;;0.20;;
62709;SDS011;48770;51.624;5.886;2023-07-20T10:02:19;0.77;;;0.30;;
62709;SDS011;48770;51.624;5.886;2023-07-20T10:04:51;3.03;;;0.20;;
62709;SDS011;48770;51.624;5.886;2023-07-20T10:07:18;0.35;;;0.20;;
62709;SDS011;48770;51.624;5.886;2023-07-20T10:09:46;0.43;;;0.22;;
62709;SDS011;48770;51.624;5.886;2023-07-20T10:12:13;0.40;;;0.30;;
62709;SDS011;48770;51.624;5.886;2023-07-20T10:14:41;0.55;;;0.17;;
62709;SDS011;48770;51.624;5.886;2023-07-20T10:17:10;0.85;;;0.30;;
62709;SDS011;48770;51.624;5.886;2023-07-20T10:19:44;1.13;;;0.30;;
62709;SDS011;48770;51.624;5.886;2023-07-20T10:22:17;0.70;;;0.20;;
62709;SDS011;48770;51.624;5.886;2023-07-20T10:24:47;0.45;;;0.30;;
62709;SDS011;48770;51.624;5.886;2023-07-20T10:27:14;0.32;;;0.20;;
62709;SDS011;48770;51.624;5.886;2023-07-20T10:29:40;0.93;;;0.20;;
62709;SDS011;48770;51.624;5.886;2023-07-20T10:32:07;0.38;;;0.20;;
62709;SDS011;48770;51.624;5.886;2023-07-20T10:34:33;0.73;;;0.20;;
62709;SDS011;48770;51.624;5.886;2023-07-20T10:36:59;0.30;;;0.22;;
62709;SDS011;48770;51.624;5.886;2023-07-20T10:39:25;0.50;;;0.20;;
62709;SDS011;48770;51.624;5.886;2023-07-20T10:44:33;1.15;;;0.30;;
62709;SDS011;48770;51.624;5.886;2023-07-20T10:46:59;1.88;;;0.20;;
62709;SDS011;48770;51.624;5.886;2023-07-20T10:49:26;0.38;;;0.22;;
62709;SDS011;48770;51.624;5.886;2023-07-20T10:51:58;0.40;;;0.30;;
62709;SDS011;48770;51.624;5.886;2023-07-20T10:56:50;0.40;;;0.20;;
62709;SDS011;48770;51.624;5.886;2023-07-20T11:01:51;0.50;;;0.30;;
62709;SDS011;48770;51.624;5.886;2023-07-20T11:04:22;0.52;;;0.20;;
62709;SDS011;48770;51.624;5.886;2023-07-20T11:07:02;0.30;;;0.20;;
62709;SDS011;48770;51.624;5.886;2023-07-20T11:09:33;0.80;;;0.22;;
62709;SDS011;48770;51.624;5.886;2023-07-20T11:12:09;0.60;;;0.35;;
62709;SDS011;48770;51.624;5.886;2023-07-20T11:14:53;0.80;;;0.30;;
62709;SDS011;48770;51.624;5.886;2023-07-20T11:17:22;2.85;;;0.28;;
62709;SDS011;48770;51.624;5.886;2023-07-20T11:19:57;1.30;;;0.45;;
62709;SDS011;48770;51.624;5.886;2023-07-20T11:22:25;0.40;;;0.25;;
62709;SDS011;48770;51.624;5.886;2023-07-20T11:24:54;0.38;;;0.30;;
62709;SDS011;48770;51.624;5.886;2023-07-20T11:27:20;0.85;;;0.30;;
62709;SDS011;48770;51.624;5.886;2023-07-20T11:29:47;0.40;;;0.30;;
62709;SDS011;48770;51.624;5.886;2023-07-20T11:32:13;0.30;;;0.30;;
62709;SDS011;48770;51.624;5.886;2023-07-20T11:34:47;0.82;;;0.20;;
62709;SDS011;48770;51.624;5.886;2023-07-20T11:37:12;0.30;;;0.20;;
62709;SDS011;48770;51.624;5.886;2023-07-20T11:39:38;0.55;;;0.20;;
62709;SDS011;48770;51.624;5.886;2023-07-20T11:42:04;1.35;;;0.63;;
62709;SDS011;48770;51.624;5.886;2023-07-20T11:44:30;2.58;;;0.43;;
62709;SDS011;48770;51.624;5.886;2023-07-20T11:46:59;0.80;;;0.30;;
62709;SDS011;48770;51.624;5.886;2023-07-20T11:49:27;2.83;;;0.35;;
62709;SDS011;48770;51.624;5.886;2023-07-20T11:51:53;0.40;;;0.22;;
62709;SDS011;48770;51.624;5.886;2023-07-20T11:54:18;2.22;;;0.22;;
62709;SDS011;48770;51.624;5.886;2023-07-20T11:56:44;0.73;;;0.30;;
62709;SDS011;48770;51.624;5.886;2023-07-20T11:59:09;0.52;;;0.30;;
62709;SDS011;48770;51.624;5.886;2023-07-20T12:01:34;17.05;;;0.73;;
62709;SDS011;48770;51.624;5.886;2023-07-20T12:04:00;0.47;;;0.20;;
62709;SDS011;48770;51.624;5.886;2023-07-20T12:06:28;0.60;;;0.32;;
62709;SDS011;48770;51.624;5.886;2023-07-20T12:08:54;1.00;;;0.40;;
62709;SDS011;48770;51.624;5.886;2023-07-20T12:11:37;0.38;;;0.10;;
62709;SDS011;48770;51.624;5.886;2023-07-20T12:14:07;0.32;;;0.28;;
62709;SDS011;48770;51.624;5.886;2023-07-20T12:16:33;0.73;;;0.40;;
62709;SDS011;48770;51.624;5.886;2023-07-20T12:19:03;0.40;;;0.30;;
62709;SDS011;48770;51.624;5.886;2023-07-20T12:21:29;0.75;;;0.50;;
62709;SDS011;48770;51.624;5.886;2023-07-20T12:23:56;0.70;;;0.50;;
62709;SDS011;48770;51.624;5.886;2023-07-20T12:26:23;0.75;;;0.30;;
62709;SDS011;48770;51.624;5.886;2023-07-20T12:28:49;0.40;;;0.30;;
62709;SDS011;48770;51.624;5.886;2023-07-20T12:31:14;0.88;;;0.20;;
62709;SDS011;48770;51.624;5.886;2023-07-20T12:33:40;0.73;;;0.30;;
62709;SDS011;48770;51.624;5.886;2023-07-20T12:36:06;0.82;;;0.43;;
62709;SDS011;48770;51.624;5.886;2023-07-20T12:38:31;1.13;;;0.40;;
62709;SDS011;48770;51.624;5.886;2023-07-20T12:40:57;0.60;;;0.30;;
62709;SDS011;48770;51.624;5.886;2023-07-20T12:43:23;0.50;;;0.40;;
62709;SDS011;48770;51.624;5.886;2023-07-20T12:45:49;0.43;;;0.30;;
62709;SDS011;48770;51.624;5.886;2023-07-20T12:48:14;2.17;;;0.30;;
62709;SDS011;48770;51.624;5.886;2023-07-20T12:50:39;0.80;;;0.22;;
62709;SDS011;48770;51.624;5.886;2023-07-20T12:53:05;0.60;;;0.37;;
62709;SDS011;48770;51.624;5.886;2023-07-20T12:55:30;0.70;;;0.20;;
62709;SDS011;48770;51.624;5.886;2023-07-20T12:57:55;0.68;;;0.30;;
62709;SDS011;48770;51.624;5.886;2023-07-20T13:00:21;0.50;;;0.28;;
62709;SDS011;48770;51.624;5.886;2023-07-20T13:02:49;0.47;;;0.20;;
62709;SDS011;48770;51.624;5.886;2023-07-20T13:05:15;0.40;;;0.15;;
62709;SDS011;48770;51.624;5.886;2023-07-20T13:07:41;0.93;;;0.40;;
62709;SDS011;48770;51.624;5.886;2023-07-20T13:10:08;0.47;;;0.30;;
62709;SDS011;48770;51.624;5.886;2023-07-20T13:12:34;0.30;;;0.20;;
62709;SDS011;48770;51.624;5.886;2023-07-20T13:15:04;1.35;;;0.30;;
62709;SDS011;48770;51.624;5.886;2023-07-20T13:17:34;0.60;;;0.40;;
62709;SDS011;48770;51.624;5.886;2023-07-20T13:20:00;0.40;;;0.25;;
62709;SDS011;48770;51.624;5.886;2023-07-20T13:22:29;0.38;;;0.38;;
62709;SDS011;48770;51.624;5.886;2023-07-20T13:24:55;0.93;;;0.50;;
62709;SDS011;48770;51.624;5.886;2023-07-20T13:27:20;1.15;;;0.40;;
62709;SDS011;48770;51.624;5.886;2023-07-20T13:29:46;0.47;;;0.25;;
62709;SDS011;48770;51.624;5.886;2023-07-20T13:32:14;1.38;;;0.32;;
62709;SDS011;48770;51.624;5.886;2023-07-20T13:34:40;2.33;;;0.40;;
62709;SDS011;48770;51.624;5.886;2023-07-20T13:37:06;0.55;;;0.30;;
62709;SDS011;48770;51.624;5.886;2023-07-20T13:39:32;0.90;;;0.43;;
62709;SDS011;48770;51.624;5.886;2023-07-20T13:41:57;0.82;;;0.20;;
62709;SDS011;48770;51.624;5.886;2023-07-20T13:44:22;0.90;;;0.20;;
62709;SDS011;48770;51.624;5.886;2023-07-20T13:46:48;0.40;;;0.30;;
62709;SDS011;48770;51.624;5.886;2023-07-20T13:49:14;0.40;;;0.30;;
62709;SDS011;48770;51.624;5.886;2023-07-20T13:51:41;0.50;;;0.30;;
62709;SDS011;48770;51.624;5.886;2023-07-20T13:54:07;0.85;;;0.45;;
62709;SDS011;48770;51.624;5.886;2023-07-20T13:56:32;0.80;;;0.22;;
62709;SDS011;48770;51.624;5.886;2023-07-20T13:58:57;0.95;;;0.20;;
62709;SDS011;48770;51.624;5.886;2023-07-20T14:01:23;0.30;;;0.20;;
62709;SDS011;48770;51.624;5.886;2023-07-20T14:03:49;0.52;;;0.25;;
62709;SDS011;48770;51.624;5.886;2023-07-20T14:06:15;1.50;;;0.40;;
62709;SDS011;48770;51.624;5.886;2023-07-20T14:08:41;1.80;;;0.40;;
62709;SDS011;48770;51.624;5.886;2023-07-20T14:11:06;0.20;;;0.20;;
62709;SDS011;48770;51.624;5.886;2023-07-20T14:13:32;0.40;;;0.20;;
62709;SDS011;48770;51.624;5.886;2023-07-20T14:15:57;0.35;;;0.20;;
62709;SDS011;48770;51.624;5.886;2023-07-20T14:18:22;0.80;;;0.30;;
62709;SDS011;48770;51.624;5.886;2023-07-20T14:20:48;0.73;;;0.38;;
62709;SDS011;48770;51.624;5.886;2023-07-20T14:23:13;1.57;;;0.30;;
62709;SDS011;48770;51.624;5.886;2023-07-20T14:25:38;0.35;;;0.30;;
62709;SDS011;48770;51.624;5.886;2023-07-20T14:28:03;0.38;;;0.28;;
62709;SDS011;48770;51.624;5.886;2023-07-20T14:30:29;1.08;;;0.40;;
62709;SDS011;48770;51.624;5.886;2023-07-20T14:32:54;0.32;;;0.10;;
62709;SDS011;48770;51.624;5.886;2023-07-20T14:35:19;0.30;;;0.25;;
62709;SDS011;48770;51.624;5.886;2023-07-20T14:37:45;1.00;;;0.30;;
62709;SDS011;48770;51.624;5.886;2023-07-20T14:40:12;0.60;;;0.22;;
62709;SDS011;48770;51.624;5.886;2023-07-20T14:42:38;0.70;;;0.50;;
62709;SDS011;48770;51.624;5.886;2023-07-20T14:45:03;1.02;;;0.40;;
62709;SDS011;48770;51.624;5.886;2023-07-20T14:47:30;0.95;;;0.30;;
62709;SDS011;48770;51.624;5.886;2023-07-20T14:49:57;0.90;;;0.30;;
62709;SDS011;48770;51.624;5.886;2023-07-20T14:52:22;1.23;;;0.40;;
62709;SDS011;48770;51.624;5.886;2023-07-20T14:54:48;1.20;;;0.40;;